Spanaway, Washington
Current Conditions -  °F | °C
As of 8:03 PM on Saturday 20 Dec 2014 (Local Time) from KTCM Reporting Station
Light Rain Light Rain  
Wind Chill: 55°   Ceiling: 700
Heat Index: 55°   Visibility: 7mi
Dew Point: 55°   Wind: 21mph
Humidity: 100%   Direction: 210°SSW
Pressure: 29.51"   Gusts: 24mph
Location:  47.07°N, 122.41°W
Report Text: KTCM 210403Z AUTO 21018G21KT 7SM -RA BKN007 BKN012 OVC039 13/13 A2951 RMK AO2 CIG 007V009
Loading
Personal Weather Stations






























Interactive Weather Map New forecast layout! Learn more

10-Day Weather Forecast

Advertisements
Track Severe Weather on mobile